Time;durP1;ratioP1;P1;durP2;ratioP2;P2;SDS_P1;SDS_P2;PMS_P1;PMS_P2;Temp;Humidity;BMP_temperature;BMP_pressure;BME280_temperature;BME280_humidity;BME280_pressure;Samples;Min_cycle;Max_cycle;Signal;HPM_P1;HPM_P2
2021/06/17 00:01:47;;;;;;;8.23;6.28;;;22.90;91.20;;;;;;5050297;28;20080;-72
2021/06/17 00:04:13;;;;;;;10.20;6.60;;;22.80;91.20;;;;;;5050927;28;20068;-73
2021/06/17 00:06:40;;;;;;;8.95;6.72;;;22.70;91.20;;;;;;5056551;28;20384;-72
2021/06/17 00:09:08;;;;;;;9.05;6.80;;;22.70;91.30;;;;;;5041576;28;20187;-72
2021/06/17 00:11:35;;;;;;;8.65;6.80;;;22.60;91.30;;;;;;5033414;28;20052;-72
2021/06/17 00:14:03;;;;;;;9.57;7.03;;;22.50;91.30;;;;;;5056851;28;20521;-72
2021/06/17 00:16:30;;;;;;;10.43;6.45;;;22.50;91.40;;;;;;5065950;28;20701;-72
2021/06/17 00:18:57;;;;;;;8.95;7.18;;;22.50;91.50;;;;;;5056193;28;20052;-72
2021/06/17 00:21:24;;;;;;;8.73;6.63;;;22.40;91.60;;;;;;5050213;28;20085;-72
2021/06/17 00:23:52;;;;;;;9.50;6.60;;;22.50;91.60;;;;;;5054268;28;20048;-72
2021/06/17 00:26:19;;;;;;;8.57;6.80;;;22.40;91.60;;;;;;5053078;28;20080;-72
2021/06/17 00:28:45;;;;;;;11.50;6.85;;;22.40;91.70;;;;;;5026750;28;20095;-72
2021/06/17 00:31:12;;;;;;;10.88;6.80;;;22.40;91.80;;;;;;5054543;28;20053;-72
2021/06/17 00:33:39;;;;;;;10.30;7.15;;;22.30;91.80;;;;;;5046338;28;20052;-72
2021/06/17 00:36:06;;;;;;;10.10;7.18;;;22.20;91.80;;;;;;5039744;28;20422;-72
2021/06/17 00:38:33;;;;;;;11.40;7.37;;;22.20;91.90;;;;;;5045839;28;20053;-73
2021/06/17 00:40:59;;;;;;;10.45;7.40;;;22.20;92.00;;;;;;5057368;28;20087;-72
2021/06/17 00:43:26;;;;;;;10.20;7.15;;;22.20;92.10;;;;;;5049629;28;20136;-72
2021/06/17 00:45:54;;;;;;;10.20;7.07;;;22.10;92.10;;;;;;5042863;28;20077;-72
2021/06/17 00:48:21;;;;;;;9.95;7.57;;;22.10;92.10;;;;;;5049543;28;20041;-72
2021/06/17 00:50:50;;;;;;;10.00;8.02;;;22.10;92.20;;;;;;5054376;28;20052;-72
2021/06/17 00:53:25;;;;;;;11.20;7.57;;;22.10;92.20;;;;;;5049697;28;20140;-73
2021/06/17 00:55:52;;;;;;;9.65;7.78;;;22.10;92.30;;;;;;5046407;28;20052;-72
2021/06/17 00:58:20;;;;;;;10.60;7.90;;;22.10;92.40;;;;;;5053095;28;20072;-72
2021/06/17 01:00:47;;;;;;;11.25;7.50;;;22.10;92.40;;;;;;5055740;28;20080;-72
2021/06/17 01:03:14;;;;;;;13.23;7.97;;;22.10;92.40;;;;;;5053989;28;20417;-72
2021/06/17 01:05:41;;;;;;;11.18;7.15;;;22.10;92.50;;;;;;5053535;28;20103;-72
2021/06/17 01:08:08;;;;;;;10.07;7.53;;;22.00;92.50;;;;;;5050680;28;20065;-72
2021/06/17 01:11:02;;;;;;;10.73;8.15;;;22.00;92.60;;;;;;5048231;28;20176;-73
2021/06/17 01:13:38;;;;;;;9.90;8.13;;;22.00;92.70;;;;;;5050687;28;20072;-72
2021/06/17 01:16:28;;;;;;;11.50;8.73;;;22.00;92.70;;;;;;5050473;28;20095;-71
2021/06/17 01:19:02;;;;;;;10.63;7.90;;;21.90;92.80;;;;;;5048645;28;20055;-72
2021/06/17 01:21:56;;;;;;;9.85;7.60;;;21.90;92.80;;;;;;5048209;28;20073;-72
2021/06/17 01:24:47;;;;;;;10.05;8.02;;;21.90;93.00;;;;;;5057414;28;20076;-72
2021/06/17 01:27:50;;;;;;;11.77;8.35;;;21.90;93.00;;;;;;5049192;28;20045;-72
2021/06/17 01:30:19;;;;;;;9.90;7.88;;;21.80;93.00;;;;;;5061927;28;20077;-72
2021/06/17 01:32:55;;;;;;;10.10;7.93;;;21.80;93.30;;;;;;5060339;28;20100;-72
2021/06/17 01:35:25;;;;;;;12.23;7.95;;;21.80;93.10;;;;;;5034421;28;20072;-72
2021/06/17 01:37:55;;;;;;;11.65;8.52;;;21.70;93.10;;;;;;5040986;28;20053;-72
2021/06/17 01:40:25;;;;;;;10.88;8.05;;;21.70;93.20;;;;;;5053879;28;20136;-72
2021/06/17 01:43:10;;;;;;;10.70;7.97;;;21.70;93.20;;;;;;5040910;28;20079;-72
2021/06/17 01:45:38;;;;;;;10.65;8.00;;;21.70;93.30;;;;;;5055407;28;20045;-72
2021/06/17 01:48:07;;;;;;;11.73;8.63;;;21.70;93.30;;;;;;5053242;28;20120;-72
2021/06/17 01:50:44;;;;;;;10.57;8.10;;;21.60;93.30;;;;;;5062965;28;20183;-72
2021/06/17 01:54:01;;;;;;;10.88;7.82;;;21.50;93.40;;;;;;5053261;28;20472;-72
2021/06/17 01:56:28;;;;;;;9.80;8.23;;;21.50;93.50;;;;;;5051630;28;20117;-72
2021/06/17 01:58:57;;;;;;;11.52;8.05;;;21.50;93.50;;;;;;5046791;28;20135;-72
2021/06/17 02:01:30;;;;;;;10.55;8.43;;;21.40;93.60;;;;;;5025872;28;20073;-72
2021/06/17 02:03:59;;;;;;;11.25;8.73;;;21.40;93.70;;;;;;5054625;28;20114;-72
2021/06/17 02:06:27;;;;;;;11.05;8.50;;;21.40;93.80;;;;;;5043366;28;20126;-72
2021/06/17 02:08:55;;;;;;;11.38;8.50;;;21.30;93.90;;;;;;5040372;28;20072;-72
2021/06/17 02:11:23;;;;;;;;;;;21.30;94.00;;;;;;5032469;28;20053;-72
2021/06/17 02:13:51;;;;;;;10.68;8.05;;;21.30;94.20;;;;;;5059839;28;20005;-72
2021/06/17 02:16:19;;;;;;;12.52;9.18;;;21.20;93.90;;;;;;5035983;28;20072;-72
2021/06/17 02:18:47;;;;;;;;;;;21.20;94.00;;;;;;5060040;28;20097;-71
2021/06/17 02:21:15;;;;;;;10.77;8.00;;;21.20;94.20;;;;;;5052757;28;19955;-72
2021/06/17 02:23:47;;;;;;;12.32;8.80;;;21.20;94.10;;;;;;5049602;28;20079;-72
2021/06/17 02:26:14;;;;;;;10.95;8.98;;;21.20;94.20;;;;;;5045330;28;20198;-71
2021/06/17 02:28:45;;;;;;;14.07;9.37;;;21.10;94.30;;;;;;5051096;28;20110;-72
2021/06/17 02:31:17;;;;;;;12.13;9.30;;;21.10;94.30;;;;;;5050541;28;20545;-72
2021/06/17 02:33:47;;;;;;;13.73;9.52;;;21.10;94.40;;;;;;5045812;28;20060;-72
2021/06/17 02:36:15;;;;;;;13.57;10.13;;;21.10;94.60;;;;;;5057538;28;20098;-72
2021/06/17 02:38:45;;;;;;;11.80;9.98;;;21.10;94.60;;;;;;5053917;28;20048;-72
2021/06/17 02:41:14;;;;;;;12.05;9.43;;;21.10;94.70;;;;;;5055800;28;20075;-72
2021/06/17 02:43:45;;;;;;;12.65;9.95;;;21.10;94.80;;;;;;5048916;28;20105;-72
2021/06/17 02:46:12;;;;;;;14.32;10.32;;;21.10;94.80;;;;;;5047504;28;20127;-72
2021/06/17 02:48:39;;;;;;;13.75;9.55;;;21.10;94.90;;;;;;5051514;28;20071;-72
2021/06/17 02:51:05;;;;;;;12.32;9.73;;;21.10;94.90;;;;;;5049063;28;20488;-72
2021/06/17 02:53:33;;;;;;;11.82;9.75;;;21.10;95.00;;;;;;5041271;28;20153;-72
2021/06/17 02:56:07;;;;;;;10.70;9.47;;;21.10;95.10;;;;;;5057097;28;20108;-72
2021/06/17 02:59:09;;;;;;;12.90;9.35;;;21.10;95.10;;;;;;5057985;28;20087;-72
2021/06/17 03:01:59;;;;;;;12.82;10.27;;;21.00;95.20;;;;;;5043382;28;20084;-71
2021/06/17 03:04:50;;;;;;;13.60;10.10;;;21.10;95.20;;;;;;5057086;28;20044;-72
2021/06/17 03:07:41;;;;;;;13.65;10.27;;;21.10;95.30;;;;;;5049251;28;20045;-72
2021/06/17 03:10:10;;;;;;;13.60;10.13;;;21.10;95.40;;;;;;5051649;28;20138;-72
2021/06/17 03:12:40;;;;;;;14.13;10.32;;;21.10;95.30;;;;;;5050692;28;20133;-72
2021/06/17 03:15:07;;;;;;;15.15;10.27;;;21.10;95.70;;;;;;5055235;28;20045;-72
2021/06/17 03:17:38;;;;;;;14.80;10.77;;;21.10;95.50;;;;;;5053491;28;20044;-72
2021/06/17 03:20:08;;;;;;;12.48;10.20;;;21.10;95.50;;;;;;5060256;28;20077;-72
2021/06/17 03:22:37;;;;;;;14.15;10.73;;;21.10;95.60;;;;;;5035087;28;21821;-72
2021/06/17 03:25:11;;;;;;;15.95;11.88;;;21.10;95.70;;;;;;5059162;28;20072;-72
2021/06/17 03:27:40;;;;;;;14.65;11.00;;;21.10;95.70;;;;;;5042556;28;20060;-72
2021/06/17 03:30:08;;;;;;;18.58;12.77;;;21.10;95.70;;;;;;5049622;28;20064;-72
2021/06/17 03:32:36;;;;;;;14.75;12.40;;;21.20;95.80;;;;;;5043071;28;20068;-72
2021/06/17 03:35:04;;;;;;;15.38;12.68;;;21.20;95.80;;;;;;5051401;28;20073;-72
2021/06/17 03:37:31;;;;;;;;;;;21.30;96.00;;;;;;5037467;28;20136;-72
2021/06/17 03:40:00;;;;;;;16.03;13.03;;;21.30;96.00;;;;;;5046773;28;19962;-72
2021/06/17 03:42:28;;;;;;;15.68;11.80;;;21.40;95.90;;;;;;5030297;28;20073;-72
2021/06/17 03:44:57;;;;;;;19.05;12.40;;;21.40;96.00;;;;;;5037294;28;20061;-72
2021/06/17 03:47:24;;;;;;;;;;;21.50;96.10;;;;;;5046036;28;20146;-72
2021/06/17 03:49:53;;;;;;;18.20;12.65;;;21.50;96.30;;;;;;5050394;28;20388;-72
2021/06/17 03:52:20;;;;;;;20.90;13.57;;;21.50;96.00;;;;;;5048507;28;20065;-72
2021/06/17 03:54:48;;;;;;;19.05;13.80;;;21.60;96.10;;;;;;5062437;28;20096;-72
2021/06/17 03:57:20;;;;;;;20.63;14.90;;;21.60;96.20;;;;;;5054883;28;20485;-72
2021/06/17 03:59:49;;;;;;;21.92;15.00;;;21.60;96.30;;;;;;5059130;28;20056;-72
2021/06/17 04:02:16;;;;;;;18.08;15.02;;;21.60;96.40;;;;;;5046198;28;20083;-72
2021/06/17 04:04:43;;;;;;;17.90;14.82;;;21.60;96.50;;;;;;5043612;28;20139;-72
2021/06/17 04:07:18;;;;;;;22.17;15.73;;;21.60;96.70;;;;;;5050100;28;20068;-72
2021/06/17 04:09:45;;;;;;;20.83;15.88;;;21.60;96.70;;;;;;5055713;28;20131;-72
2021/06/17 04:12:23;;;;;;;19.13;14.20;;;21.70;96.90;;;;;;5051414;28;20076;-72
2021/06/17 04:14:53;;;;;;;21.20;16.23;;;21.70;97.00;;;;;;5057471;28;20099;-72
2021/06/17 04:17:25;;;;;;;20.50;15.68;;;21.80;97.10;;;;;;5047590;28;20076;-72
2021/06/17 04:19:53;;;;;;;21.98;16.83;;;21.80;97.20;;;;;;5030122;28;20147;-72
2021/06/17 04:22:23;;;;;;;22.35;16.95;;;21.90;97.30;;;;;;5049692;28;20102;-72
2021/06/17 04:24:59;;;;;;;21.52;17.55;;;21.90;97.40;;;;;;5035449;28;20084;-72
2021/06/17 04:27:26;;;;;;;23.17;18.10;;;22.00;97.60;;;;;;5035573;28;20708;-73
2021/06/17 04:29:54;;;;;;;29.83;18.65;;;22.00;97.70;;;;;;5035673;28;20048;-72
2021/06/17 04:32:21;;;;;;;;;;;22.00;97.80;;;;;;5054485;28;20125;-72
2021/06/17 04:34:50;;;;;;;22.02;18.50;;;22.00;97.90;;;;;;5057387;28;19924;-72
2021/06/17 04:37:19;;;;;;;22.40;18.60;;;22.10;98.00;;;;;;5054205;28;20114;-72
2021/06/17 04:39:46;;;;;;;23.08;18.08;;;22.10;98.10;;;;;;5049464;28;20443;-72
2021/06/17 04:42:15;;;;;;;22.77;18.60;;;22.20;98.20;;;;;;5051604;28;20155;-72
2021/06/17 04:44:43;;;;;;;23.38;18.90;;;22.20;98.30;;;;;;5048300;28;20052;-72
2021/06/17 04:47:11;;;;;;;25.90;19.27;;;22.30;98.40;;;;;;5047701;28;20045;-72
2021/06/17 04:49:38;;;;;;;25.42;19.35;;;22.30;98.50;;;;;;5030293;28;20148;-72
2021/06/17 04:52:14;;;;;;;22.27;19.07;;;22.40;98.60;;;;;;5027792;28;20041;-72
2021/06/17 04:54:41;;;;;;;25.58;18.50;;;22.40;98.70;;;;;;5071489;28;20115;-72
2021/06/17 04:57:07;;;;;;;23.92;19.55;;;22.50;98.80;;;;;;5047688;28;20081;-72
2021/06/17 04:59:34;;;;;;;23.08;18.83;;;22.50;99.00;;;;;;5052724;28;20139;-72
2021/06/17 05:02:01;;;;;;;25.30;20.45;;;22.50;99.00;;;;;;5047802;28;20119;-72
2021/06/17 05:04:28;;;;;;;25.08;20.15;;;22.60;99.20;;;;;;5038020;28;20127;-72
2021/06/17 05:12:17;;;;;;;29.23;22.63;;;22.80;99.50;;;;;;5038962;28;20570;-72
2021/06/17 05:14:44;;;;;;;25.92;20.65;;;22.80;99.60;;;;;;5050191;28;20052;-72
2021/06/17 05:17:11;;;;;;;27.52;22.67;;;22.90;99.70;;;;;;5051841;28;20080;-72
2021/06/17 05:19:38;;;;;;;24.65;20.52;;;22.90;99.80;;;;;;5058799;28;20079;-72
2021/06/17 05:22:05;;;;;;;32.80;23.25;;;23.00;99.90;;;;;;5046488;28;20056;-72
2021/06/17 05:24:32;;;;;;;27.73;22.75;;;23.00;99.90;;;;;;5052995;28;20080;-72
2021/06/17 05:26:59;;;;;;;25.52;20.30;;;23.10;99.90;;;;;;5051114;28;20079;-72
2021/06/17 05:29:28;;;;;;;28.02;21.65;;;23.10;99.90;;;;;;5052260;28;20068;-72
2021/06/17 05:31:56;;;;;;;30.10;22.67;;;23.20;99.90;;;;;;5050389;28;20117;-72
2021/06/17 05:34:23;;;;;;;27.77;20.63;;;23.30;99.90;;;;;;5054092;28;20048;-72
2021/06/17 05:36:50;;;;;;;26.67;20.80;;;23.30;99.90;;;;;;5045631;28;21708;-72
2021/06/17 05:39:17;;;;;;;27.30;21.10;;;23.40;99.90;;;;;;5020808;28;20044;-72
2021/06/17 05:41:44;;;;;;;27.00;20.90;;;23.50;99.90;;;;;;5051542;28;20053;-72
2021/06/17 05:44:11;;;;;;;25.58;21.25;;;23.50;99.90;;;;;;5050593;28;20085;-72
2021/06/17 05:46:40;;;;;;;29.33;22.55;;;23.60;99.90;;;;;;5049660;28;20488;-72
2021/06/17 05:49:07;;;;;;;25.75;21.63;;;23.70;99.90;;;;;;5045478;28;20356;-72
2021/06/17 05:51:34;;;;;;;30.98;23.30;;;23.80;99.90;;;;;;5009509;28;20069;-72
2021/06/17 05:54:01;;;;;;;27.88;23.02;;;23.80;99.90;;;;;;5023347;28;20138;-72
2021/06/17 05:56:28;;;;;;;28.17;22.30;;;23.90;99.90;;;;;;5035168;28;20077;-72
2021/06/17 05:58:58;;;;;;;27.92;20.15;;;23.90;99.90;;;;;;5032278;28;20045;-72
2021/06/17 06:01:25;;;;;;;27.80;22.58;;;24.00;99.90;;;;;;5033464;28;20201;-73
2021/06/17 06:03:52;;;;;;;30.48;24.00;;;24.00;99.90;;;;;;5034086;28;20476;-72
2021/06/17 06:06:19;;;;;;;31.17;24.17;;;24.00;99.90;;;;;;5030937;28;20167;-72
2021/06/17 06:08:46;;;;;;;30.63;23.33;;;24.00;99.90;;;;;;5033866;28;20077;-72
2021/06/17 06:11:17;;;;;;;38.05;24.55;;;23.90;99.90;;;;;;5032226;28;20084;-72
2021/06/17 06:17:32;;;;;;;35.50;26.33;;;23.90;99.90;;;;;;5027741;28;20032;-72
2021/06/17 06:19:59;;;;;;;29.55;23.30;;;23.90;99.90;;;;;;5030690;28;20984;-72
2021/06/17 06:22:26;;;;;;;31.43;23.13;;;23.90;99.90;;;;;;5029468;28;20531;-72
2021/06/17 06:24:53;;;;;;;31.80;25.20;;;23.90;99.90;;;;;;5036191;28;20425;-72
2021/06/17 06:27:20;;;;;;;31.00;23.63;;;23.90;99.90;;;;;;5029859;28;21141;-72
2021/06/17 06:29:47;;;;;;;28.75;23.30;;;23.90;99.90;;;;;;5032472;28;20096;-72
2021/06/17 06:32:13;;;;;;;35.40;23.38;;;23.90;99.90;;;;;;5028587;28;20219;-72
2021/06/17 06:34:40;;;;;;;27.45;22.70;;;23.90;99.90;;;;;;5028817;28;20140;-72
2021/06/17 06:37:07;;;;;;;34.53;23.40;;;23.90;99.90;;;;;;5018204;28;20138;-73
2021/06/17 06:39:34;;;;;;;32.72;23.85;;;24.00;99.90;;;;;;5017515;28;20181;-72
2021/06/17 06:42:01;;;;;;;29.30;21.50;;;23.90;99.90;;;;;;5038105;28;20069;-72
2021/06/17 06:44:29;;;;;;;27.13;20.63;;;24.00;99.90;;;;;;5039723;28;20399;-72
2021/06/17 06:46:57;;;;;;;29.52;19.70;;;24.00;99.90;;;;;;5014950;28;20132;-73
2021/06/17 06:49:24;;;;;;;25.80;19.02;;;24.00;99.90;;;;;;5029481;28;20096;-72
2021/06/17 06:51:51;;;;;;;21.25;17.92;;;24.00;99.90;;;;;;5035032;28;20481;-72
2021/06/17 06:54:21;;;;;;;27.70;19.23;;;24.00;99.90;;;;;;5036067;28;20085;-72
2021/06/17 06:56:48;;;;;;;26.40;20.55;;;24.10;99.90;;;;;;5032295;28;20128;-72
2021/06/17 06:59:16;;;;;;;25.90;19.48;;;24.10;99.90;;;;;;5035843;28;20132;-72
2021/06/17 07:01:43;;;;;;;23.70;19.20;;;24.20;99.90;;;;;;5021023;28;20080;-72
2021/06/17 07:04:09;;;;;;;31.33;19.90;;;24.20;99.90;;;;;;5035934;28;20046;-72
2021/06/17 07:06:38;;;;;;;21.67;18.05;;;24.20;99.90;;;;;;5031378;28;20552;-72
2021/06/17 07:09:06;;;;;;;27.23;18.63;;;24.40;99.90;;;;;;5015695;28;20069;-72
2021/06/17 07:11:33;;;;;;;20.98;16.70;;;24.50;99.90;;;;;;5030216;28;20073;-72
2021/06/17 07:14:00;;;;;;;20.73;15.10;;;24.70;99.90;;;;;;5032650;28;20641;-72
2021/06/17 07:16:26;;;;;;;18.52;13.57;;;24.90;99.90;;;;;;5033701;28;20393;-72
2021/06/17 07:18:55;;;;;;;20.50;16.50;;;25.10;99.90;;;;;;5024947;28;20057;-72
2021/06/17 07:21:22;;;;;;;23.88;15.90;;;25.20;99.90;;;;;;5032172;28;20057;-72
2021/06/17 07:23:53;;;;;;;22.83;15.25;;;25.30;99.90;;;;;;5033027;28;20501;-72
2021/06/17 07:26:22;;;;;;;20.83;14.70;;;25.30;99.90;;;;;;5029282;28;20481;-72
2021/06/17 07:28:49;;;;;;;20.00;13.55;;;25.50;99.90;;;;;;5028580;28;20106;-72
2021/06/17 07:31:16;;;;;;;16.98;13.15;;;25.60;99.90;;;;;;5029807;28;20261;-71
2021/06/17 07:33:42;;;;;;;17.23;12.07;;;25.60;99.20;;;;;;5012343;28;20164;-72
2021/06/17 07:36:12;;;;;;;15.43;10.23;;;25.60;98.70;;;;;;5031489;28;20049;-72
2021/06/17 07:38:39;;;;;;;13.20;9.57;;;25.70;98.60;;;;;;5033358;28;20080;-71
2021/06/17 07:41:06;;;;;;;13.45;10.40;;;25.80;99.00;;;;;;5029586;28;20482;-72
2021/06/17 07:43:33;;;;;;;12.95;8.30;;;25.90;98.40;;;;;;5030800;28;20072;-71
2021/06/17 07:46:01;;;;;;;12.27;9.23;;;25.90;97.60;;;;;;5025385;28;20331;-71
2021/06/17 07:48:28;;;;;;;11.73;8.10;;;26.00;98.00;;;;;;5030518;28;20059;-72
2021/06/17 07:50:55;;;;;;;12.00;8.55;;;26.00;97.80;;;;;;5028018;28;20084;-72
2021/06/17 07:53:22;;;;;;;11.95;7.90;;;26.00;98.00;;;;;;5022934;28;20144;-72
2021/06/17 07:55:48;;;;;;;15.60;10.43;;;26.10;97.70;;;;;;5029520;28;20100;-71
2021/06/17 07:58:15;;;;;;;11.27;8.70;;;26.10;97.50;;;;;;5044388;28;20493;-72
2021/06/17 08:00:42;;;;;;;14.82;8.95;;;26.10;97.50;;;;;;5031802;28;20084;-73
2021/06/17 08:03:09;;;;;;;12.57;8.37;;;26.20;97.80;;;;;;5014324;28;20066;-72
2021/06/17 08:05:36;;;;;;;18.60;7.72;;;26.20;98.20;;;;;;5031772;28;20048;-72
2021/06/17 08:08:03;;;;;;;14.68;7.90;;;26.30;98.20;;;;;;5031632;28;20081;-72
2021/06/17 08:10:30;;;;;;;10.57;6.95;;;26.30;98.30;;;;;;5014128;28;20077;-72
2021/06/17 08:12:56;;;;;;;17.17;6.88;;;26.30;98.10;;;;;;5028379;28;20073;-71
2021/06/17 08:15:23;;;;;;;10.07;6.10;;;26.40;97.90;;;;;;5031788;28;20098;-72
2021/06/17 08:17:53;;;;;;;11.90;5.93;;;26.40;98.00;;;;;;5030444;28;20050;-72
2021/06/17 08:20:20;;;;;;;14.55;5.60;;;26.40;98.30;;;;;;5015400;28;20421;-72
2021/06/17 08:22:47;;;;;;;10.88;5.45;;;26.40;98.10;;;;;;5031408;28;20557;-72
2021/06/17 08:25:14;;;;;;;15.90;5.22;;;26.50;98.10;;;;;;5032686;28;20045;-72
2021/06/17 08:27:42;;;;;;;16.90;5.70;;;26.50;97.80;;;;;;5012488;28;20051;-72
2021/06/17 08:30:12;;;;;;;8.50;4.90;;;26.50;98.00;;;;;;5028847;28;20153;-72
2021/06/17 08:32:39;;;;;;;8.40;5.38;;;26.50;97.60;;;;;;5027961;28;20738;-72
2021/06/17 08:35:07;;;;;;;18.80;5.75;;;26.60;98.20;;;;;;5014197;28;20412;-71
2021/06/17 08:37:35;;;;;;;12.00;4.68;;;26.60;98.40;;;;;;5028189;28;20045;-72
2021/06/17 08:40:04;;;;;;;9.17;5.10;;;26.70;98.30;;;;;;5029642;28;20048;-72
2021/06/17 08:42:32;;;;;;;9.95;4.60;;;26.80;98.60;;;;;;5028772;28;20136;-72
2021/06/17 08:45:05;;;;;;;8.60;3.80;;;26.80;98.40;;;;;;5031483;28;20173;-72
2021/06/17 08:47:33;;;;;;;8.25;3.97;;;26.80;98.10;;;;;;5028857;28;20068;-72
2021/06/17 08:50:02;;;;;;;10.68;3.58;;;26.90;98.00;;;;;;5024446;28;20440;-72
2021/06/17 08:52:34;;;;;;;9.05;4.00;;;26.90;98.00;;;;;;5030363;28;20114;-72
2021/06/17 08:55:14;;;;;;;6.40;3.50;;;27.00;98.00;;;;;;5031230;28;20053;-71
2021/06/17 08:57:42;;;;;;;7.25;3.80;;;27.00;98.00;;;;;;5028119;28;20049;-72
2021/06/17 09:00:15;;;;;;;9.38;3.75;;;27.10;98.00;;;;;;5032303;28;20136;-72
2021/06/17 09:03:04;;;;;;;9.30;3.50;;;27.20;98.00;;;;;;5028079;28;20089;-72
2021/06/17 09:05:35;;;;;;;6.78;3.50;;;27.20;97.80;;;;;;5033096;28;20073;-72
2021/06/17 09:08:02;;;;;;;6.88;3.28;;;27.30;97.90;;;;;;5031724;28;20133;-73
2021/06/17 09:10:30;;;;;;;8.85;3.22;;;27.30;97.90;;;;;;5029153;28;20074;-72
2021/06/17 09:12:59;;;;;;;8.88;3.50;;;27.30;97.90;;;;;;5027282;28;20150;-72
2021/06/17 09:15:48;;;;;;;8.18;3.35;;;27.40;98.00;;;;;;5041787;28;20053;-72
2021/06/17 09:18:20;;;;;;;7.47;3.30;;;27.50;97.90;;;;;;5027742;28;20401;-73
2021/06/17 09:20:53;;;;;;;7.40;3.47;;;27.60;98.00;;;;;;5030375;28;20110;-73
2021/06/17 09:23:27;;;;;;;5.45;3.35;;;27.60;97.90;;;;;;5013070;28;20583;-72
2021/06/17 09:26:03;;;;;;;8.00;3.50;;;27.70;98.00;;;;;;5045449;28;20134;-73
2021/06/17 09:29:07;;;;;;;7.97;3.47;;;27.80;98.00;;;;;;5031458;28;20148;-72
2021/06/17 09:31:44;;;;;;;6.97;3.25;;;27.90;98.10;;;;;;5045394;28;20080;-73
2021/06/17 09:34:11;;;;;;;8.20;3.55;;;28.00;98.00;;;;;;5028253;28;20076;-72
2021/06/17 09:36:40;;;;;;;6.25;3.20;;;28.00;97.90;;;;;;5026213;28;20439;-73
2021/06/17 09:39:15;;;;;;;6.30;3.60;;;28.10;97.60;;;;;;5028735;28;20099;-72
2021/06/17 09:41:44;;;;;;;8.07;3.40;;;28.00;97.90;;;;;;5029690;28;20069;-72
2021/06/17 09:44:27;;;;;;;7.43;3.63;;;28.00;97.60;;;;;;5031358;28;20061;-72
2021/06/17 09:47:09;;;;;;;10.95;3.92;;;28.00;97.40;;;;;;5027903;28;20130;-72
2021/06/17 09:49:38;;;;;;;8.80;4.07;;;27.90;97.20;;;;;;5029213;28;20648;-73
2021/06/17 09:52:07;;;;;;;9.65;4.10;;;27.90;97.30;;;;;;5027539;28;20072;-72
2021/06/17 09:54:36;;;;;;;6.47;3.65;;;27.90;97.40;;;;;;5029686;28;20093;-72
2021/06/17 09:57:09;;;;;;;11.88;3.65;;;27.90;97.40;;;;;;5029049;28;20362;-72
2021/06/17 09:59:44;;;;;;;10.70;3.97;;;27.90;97.40;;;;;;5029573;28;20049;-72
2021/06/17 10:02:21;;;;;;;10.63;4.65;;;27.90;97.50;;;;;;5027798;28;20492;-72
2021/06/17 10:04:49;;;;;;;12.00;5.47;;;27.90;96.60;;;;;;5032825;28;20469;-72
2021/06/17 10:07:19;;;;;;;11.35;4.85;;;27.80;96.70;;;;;;5027907;28;20072;-72
2021/06/17 10:09:46;;;;;;;7.35;5.00;;;27.80;96.90;;;;;;5031234;28;20076;-72
2021/06/17 10:12:14;;;;;;;10.75;5.15;;;27.80;97.00;;;;;;5030523;28;21939;-72
2021/06/17 10:14:41;;;;;;;;;;;27.70;96.80;;;;;;5032197;28;20053;-72
2021/06/17 10:17:08;;;;;;;11.45;4.03;;;27.60;96.80;;;;;;5029372;28;19929;-72
2021/06/17 10:19:35;;;;;;;8.68;3.90;;;27.60;96.90;;;;;;5013636;28;21238;-72
2021/06/17 10:22:03;;;;;;;6.25;3.53;;;27.60;97.00;;;;;;5027269;28;20073;-72
2021/06/17 10:24:35;;;;;;;7.20;3.85;;;27.60;96.90;;;;;;5030117;28;20135;-72
2021/06/17 10:27:12;;;;;;;7.25;4.13;;;27.60;96.90;;;;;;5028275;28;20057;-72
2021/06/17 10:29:41;;;;;;;10.40;4.20;;;27.50;96.70;;;;;;5031823;28;20112;-72
2021/06/17 10:32:16;;;;;;;6.35;4.32;;;27.50;97.20;;;;;;5041888;28;20456;-72
2021/06/17 10:34:47;;;;;;;8.95;4.88;;;27.50;97.30;;;;;;5030294;28;20147;-72
2021/06/17 10:37:30;;;;;;;8.25;4.40;;;27.50;97.40;;;;;;5032027;28;20045;-72
2021/06/17 10:40:19;;;;;;;9.68;4.70;;;27.60;97.40;;;;;;5031747;28;20045;-72
2021/06/17 10:42:47;;;;;;;8.90;4.90;;;27.70;97.50;;;;;;5032336;28;20056;-72
2021/06/17 10:45:32;;;;;;;6.80;4.72;;;27.90;97.20;;;;;;5036620;28;20124;-72
2021/06/17 10:48:01;;;;;;;9.88;5.25;;;28.00;97.20;;;;;;5027931;28;20428;-72
2021/06/17 10:50:54;;;;;;;9.57;5.20;;;28.10;97.10;;;;;;5027894;28;20069;-72
2021/06/17 10:53:33;;;;;;;11.90;5.93;;;28.10;96.40;;;;;;5020722;28;20137;-72
2021/06/17 10:56:04;;;;;;;8.60;5.32;;;28.20;96.60;;;;;;5017269;28;20059;-72
2021/06/17 10:58:46;;;;;;;9.57;5.30;;;28.30;97.10;;;;;;5034113;28;20080;-72
2021/06/17 11:01:28;;;;;;;13.15;6.10;;;28.40;95.60;;;;;;5032590;28;20151;-72
2021/06/17 11:04:03;;;;;;;12.27;5.50;;;28.50;95.40;;;;;;5029754;28;20056;-72
2021/06/17 11:06:51;;;;;;;11.15;5.80;;;28.60;96.40;;;;;;5031231;28;20151;-72
2021/06/17 11:09:58;;;;;;;9.77;5.10;;;28.70;96.30;;;;;;5033637;28;20118;-72
2021/06/17 11:12:41;;;;;;;6.45;4.60;;;28.70;95.30;;;;;;4933433;28;20504;-72
2021/06/17 11:15:08;;;;;;;10.65;5.55;;;28.80;96.40;;;;;;4947312;28;20106;-72
2021/06/17 11:17:42;;;;;;;10.82;5.75;;;28.80;96.40;;;;;;4996276;28;20037;-72
2021/06/17 11:20:13;;;;;;;8.82;5.70;;;28.80;95.40;;;;;;5050638;28;20111;-71
2021/06/17 11:22:41;;;;;;;8.80;5.57;;;28.90;95.60;;;;;;5029924;28;20045;-72
2021/06/17 11:25:17;;;;;;;13.18;6.45;;;29.00;94.40;;;;;;5046884;28;20065;-72
2021/06/17 11:28:10;;;;;;;12.95;6.13;;;29.10;93.30;;;;;;5033925;28;20382;-72
2021/06/17 11:30:42;;;;;;;9.05;5.07;;;29.10;92.90;;;;;;5045391;28;20433;-71
2021/06/17 11:33:19;;;;;;;10.63;6.18;;;29.20;93.70;;;;;;5011777;28;20045;-71
2021/06/17 11:35:47;;;;;;;9.65;6.15;;;29.20;94.30;;;;;;5031275;28;20053;-72
2021/06/17 11:38:22;;;;;;;9.75;6.50;;;29.30;94.90;;;;;;5033918;28;20646;-72
2021/06/17 11:40:49;;;;;;;7.90;5.60;;;29.40;94.30;;;;;;5031621;28;20053;-72
2021/06/17 11:43:26;;;;;;;11.43;5.03;;;29.50;94.30;;;;;;5031062;28;20099;-72
2021/06/17 11:45:54;;;;;;;12.13;4.57;;;29.60;93.10;;;;;;5035435;28;20346;-72
2021/06/17 11:48:22;;;;;;;9.13;4.57;;;29.60;92.90;;;;;;5014182;28;20053;-72
2021/06/17 11:50:52;;;;;;;8.80;5.00;;;29.60;90.90;;;;;;5029769;28;20045;-72
2021/06/17 11:53:24;;;;;;;12.93;4.30;;;29.70;90.40;;;;;;5031937;28;20507;-72
2021/06/17 11:55:54;;;;;;;11.63;5.15;;;29.60;91.70;;;;;;5031666;28;20081;-72
2021/06/17 11:58:37;;;;;;;11.98;4.50;;;29.60;91.40;;;;;;5031020;28;20501;-72
2021/06/17 12:01:08;;;;;;;7.18;3.70;;;29.70;91.60;;;;;;5028917;28;20119;-73
2021/06/17 12:03:34;;;;;;;7.28;4.07;;;29.80;92.10;;;;;;5027992;28;20045;-72
2021/06/17 12:06:06;;;;;;;8.07;4.03;;;29.80;92.10;;;;;;5028489;28;20088;-71
2021/06/17 12:08:33;;;;;;;9.35;4.65;;;29.90;91.20;;;;;;5034981;28;20045;-71
2021/06/17 12:11:01;;;;;;;8.30;3.93;;;29.80;90.40;;;;;;5014494;28;20071;-71
2021/06/17 12:13:28;;;;;;;7.82;3.72;;;29.80;90.90;;;;;;5030751;28;20107;-71
2021/06/17 12:15:58;;;;;;;6.30;3.42;;;29.80;91.40;;;;;;5019069;28;20184;-71
2021/06/17 12:18:25;;;;;;;9.80;3.80;;;29.90;90.90;;;;;;5032018;28;20093;-71
2021/06/17 12:20:52;;;;;;;;;;;30.00;90.40;;;;;;5033989;28;20049;-72
2021/06/17 12:23:22;;;;;;;10.52;3.72;;;29.90;89.70;;;;;;5030442;28;20276;-72
2021/06/17 12:26:05;;;;;;;7.75;3.85;;;30.00;90.60;;;;;;5030152;28;20081;-72
2021/06/17 12:28:50;;;;;;;7.22;3.42;;;30.10;89.80;;;;;;5029657;28;20128;-72
2021/06/17 12:31:36;;;;;;;10.88;3.42;;;30.10;90.00;;;;;;5030897;28;20084;-72
2021/06/17 12:34:08;;;;;;;7.57;4.15;;;30.10;90.00;;;;;;5032156;28;20064;-72
2021/06/17 12:36:35;;;;;;;8.82;3.63;;;30.00;90.30;;;;;;5033175;28;20073;-72
2021/06/17 12:39:16;;;;;;;7.15;3.30;;;29.90;87.20;;;;;;5031779;28;20049;-72
2021/06/17 12:41:48;;;;;;;6.43;3.40;;;29.90;89.00;;;;;;5030975;28;20047;-72
2021/06/17 12:44:35;;;;;;;9.18;3.28;;;29.90;89.30;;;;;;5034650;28;20735;-72
2021/06/17 12:47:06;;;;;;;7.47;3.25;;;29.90;87.90;;;;;;5029222;28;20107;-72
2021/06/17 12:52:38;;;;;;;9.25;2.88;;;30.00;88.20;;;;;;5028225;28;20053;-71
2021/06/17 12:55:07;;;;;;;7.95;2.53;;;30.00;87.20;;;;;;5029127;28;20098;-72
2021/06/17 12:57:34;;;;;;;10.02;2.88;;;30.10;88.90;;;;;;5034525;28;20585;-71
2021/06/17 13:00:15;;;;;;;9.68;3.20;;;30.10;88.80;;;;;;5032079;28;20095;-72
2021/06/17 13:02:46;;;;;;;10.95;3.13;;;30.10;87.30;;;;;;5030670;28;20722;-72
2021/06/17 13:05:18;;;;;;;7.13;2.72;;;30.10;89.60;;;;;;5032202;28;20045;-72
2021/06/17 13:08:05;;;;;;;4.93;2.88;;;30.10;88.30;;;;;;5031583;28;20045;-72
2021/06/17 13:10:41;;;;;;;7.45;3.15;;;30.10;86.80;;;;;;5029828;28;20049;-72